Time;durP1;ratioP1;P1;durP2;ratioP2;P2;SDS_P1;SDS_P2;PMS_P1;PMS_P2;Temp;Humidity;BMP_temperature;BMP_pressure;BME280_temperature;BME280_humidity;BME280_pressure;Samples;Min_cycle;Max_cycle;Signal;HPM_P1;HPM_P2
2022/06/02 00:00:21;;;;;;;1.40;1.17;;;18.10;57.00;;;;;;5074225;28;20533;-49
2022/06/02 00:03:18;;;;;;;1.43;1.30;;;18.10;57.00;;;;;;5081091;27;20577;-49
2022/06/02 00:06:10;;;;;;;1.40;1.30;;;18.10;57.00;;;;;;5063961;28;20609;-48
2022/06/02 00:09:04;;;;;;;1.50;1.40;;;18.10;57.00;;;;;;5081694;28;20588;-47
2022/06/02 00:11:58;;;;;;;1.53;1.43;;;18.10;57.00;;;;;;5065525;27;20556;-48
2022/06/02 00:14:52;;;;;;;1.90;1.40;;;18.10;57.00;;;;;;5109615;27;20581;-47
2022/06/02 00:17:43;;;;;;;1.93;1.73;;;18.00;57.00;;;;;;5121488;27;20524;-47
2022/06/02 00:20:30;;;;;;;1.43;1.33;;;18.00;57.00;;;;;;5100024;27;20606;-49
2022/06/02 00:23:39;;;;;;;1.17;1.07;;;18.00;57.00;;;;;;5120516;27;20550;-53
2022/06/02 00:26:39;;;;;;;1.60;1.50;;;18.00;57.00;;;;;;5092308;27;1192063;-48
2022/06/02 00:29:26;;;;;;;1.20;1.10;;;18.00;57.00;;;;;;5067152;28;20586;-49
2022/06/02 00:32:12;;;;;;;2.20;1.73;;;18.00;57.00;;;;;;5123063;27;20517;-49
2022/06/02 00:34:59;;;;;;;2.53;1.50;;;18.00;57.00;;;;;;5077811;28;21085;-48
2022/06/02 00:37:46;;;;;;;1.50;1.40;;;18.00;57.00;;;;;;5113694;27;21262;-49
2022/06/02 00:40:29;;;;;;;2.37;1.40;;;18.00;57.00;;;;;;5077787;27;20600;-49
2022/06/02 00:43:36;;;;;;;2.40;1.53;;;18.00;57.00;;;;;;5079884;28;20597;-48
2022/06/02 00:46:23;;;;;;;2.33;1.73;;;18.00;56.90;;;;;;5105886;27;20599;-47
2022/06/02 00:49:10;;;;;;;1.30;1.20;;;18.00;56.90;;;;;;5109972;27;20530;-48
2022/06/02 00:52:00;;;;;;;1.63;1.53;;;18.00;56.90;;;;;;5059455;27;20910;-48
2022/06/02 00:58:05;;;;;;;1.20;1.10;;;18.00;57.00;;;;;;5119203;27;20525;-47
2022/06/02 01:00:50;;;;;;;1.40;1.30;;;18.00;57.00;;;;;;5090675;27;20877;-48
2022/06/02 01:03:40;;;;;;;1.63;1.47;;;18.00;57.00;;;;;;5121757;27;20974;-47
2022/06/02 01:06:43;;;;;;;1.63;1.53;;;18.00;57.00;;;;;;5100404;27;20550;-48
2022/06/02 01:09:38;;;;;;;1.97;1.87;;;18.00;57.00;;;;;;5081756;28;20520;-47
2022/06/02 01:12:46;;;;;;;2.07;1.37;;;17.90;56.90;;;;;;5081396;28;20589;-48
2022/06/02 01:15:39;;;;;;;1.97;1.60;;;17.90;56.90;;;;;;5073540;28;21071;-47
2022/06/02 01:18:28;;;;;;;2.00;1.80;;;17.90;56.90;;;;;;5122954;27;20533;-49
2022/06/02 01:21:27;;;;;;;3.63;1.63;;;18.00;57.00;;;;;;5079940;27;20606;-48
2022/06/02 01:24:30;;;;;;;2.50;1.40;;;17.90;56.80;;;;;;5066938;28;21090;-49
2022/06/02 01:27:43;;;;;;;1.40;1.30;;;18.00;57.00;;;;;;5090141;27;20535;-49
2022/06/02 01:30:48;;;;;;;1.80;1.57;;;17.90;56.90;;;;;;5058066;27;20629;-51
2022/06/02 01:33:36;;;;;;;1.70;1.60;;;17.90;57.00;;;;;;5081429;28;20524;-47
2022/06/02 01:36:22;;;;;;;1.77;1.47;;;17.90;56.90;;;;;;5063924;27;20549;-48
2022/06/02 01:39:16;;;;;;;2.00;1.80;;;17.90;57.00;;;;;;5069209;28;20532;-48
2022/06/02 01:42:08;;;;;;;1.73;1.63;;;17.90;57.00;;;;;;5060195;27;20548;-48
2022/06/02 01:45:01;;;;;;;1.70;1.60;;;17.90;57.00;;;;;;5105362;27;20532;-47
2022/06/02 01:47:43;;;;;;;1.63;1.53;;;17.90;56.90;;;;;;5071713;28;20537;-48
2022/06/02 01:50:34;;;;;;;2.30;1.50;;;17.90;56.90;;;;;;5100793;27;20862;-49
2022/06/02 01:53:48;;;;;;;1.70;1.60;;;17.90;56.90;;;;;;5117836;27;20524;-49
2022/06/02 01:56:52;;;;;;;1.97;1.87;;;17.90;56.90;;;;;;5091503;27;20550;-46
2022/06/02 01:59:44;;;;;;;1.50;1.40;;;17.90;56.90;;;;;;5079625;28;20584;-47
2022/06/02 02:02:33;;;;;;;1.97;1.80;;;17.90;56.90;;;;;;5106705;27;20580;-49
2022/06/02 02:05:30;;;;;;;1.70;1.60;;;17.90;57.00;;;;;;5081039;28;20613;-47
2022/06/02 02:08:22;;;;;;;2.40;1.70;;;17.90;56.90;;;;;;5067705;27;21075;-47
2022/06/02 02:11:17;;;;;;;1.70;1.60;;;17.90;57.00;;;;;;5073630;28;20544;-47
2022/06/02 02:14:06;;;;;;;1.63;1.50;;;17.90;57.00;;;;;;5068321;28;20592;-47
2022/06/02 02:17:00;;;;;;;1.87;1.57;;;17.80;56.90;;;;;;5071204;27;20594;-46
2022/06/02 02:19:50;;;;;;;2.07;1.83;;;17.90;57.00;;;;;;5084476;27;20531;-47
2022/06/02 02:22:41;;;;;;;1.87;1.50;;;17.80;56.90;;;;;;5085209;28;20544;-48
2022/06/02 02:25:29;;;;;;;2.17;1.97;;;17.80;57.00;;;;;;5078878;28;20613;-48
2022/06/02 02:28:20;;;;;;;1.70;1.60;;;17.80;57.00;;;;;;5122576;27;20596;-49
2022/06/02 02:31:13;;;;;;;1.60;1.50;;;17.80;56.90;;;;;;5074827;27;20545;-48
2022/06/02 02:34:02;;;;;;;1.30;1.20;;;17.80;56.90;;;;;;5086019;28;20523;-48
2022/06/02 02:37:07;;;;;;;2.00;1.67;;;17.80;56.80;;;;;;5106884;27;20944;-50
2022/06/02 02:39:57;;;;;;;1.50;1.40;;;17.80;56.70;;;;;;5100782;27;21044;-48
2022/06/02 02:42:47;;;;;;;1.83;1.73;;;17.80;56.80;;;;;;5086736;27;20523;-48
2022/06/02 02:45:40;;;;;;;1.40;1.30;;;17.80;56.90;;;;;;5077946;28;21051;-46
2022/06/02 02:48:33;;;;;;;1.87;1.77;;;17.80;56.90;;;;;;5128357;27;20533;-50
2022/06/02 02:51:30;;;;;;;2.67;1.30;;;17.80;56.90;;;;;;5064827;27;20609;-50
2022/06/02 02:54:17;;;;;;;1.60;1.50;;;17.80;56.70;;;;;;5127266;27;20513;-49
2022/06/02 02:57:05;;;;;;;1.80;1.70;;;17.80;56.70;;;;;;5066443;27;20614;-48
2022/06/02 02:59:50;;;;;;;2.10;1.90;;;17.80;56.70;;;;;;5112976;27;20532;-49
2022/06/02 03:02:37;;;;;;;1.47;1.37;;;17.80;56.70;;;;;;5125003;27;20582;-49
2022/06/02 03:05:22;;;;;;;1.87;1.77;;;17.80;56.70;;;;;;5071813;27;20607;-49
2022/06/02 03:08:12;;;;;;;1.70;1.60;;;17.80;56.70;;;;;;5081976;28;20535;-48
2022/06/02 03:10:58;;;;;;;1.53;1.43;;;17.80;56.70;;;;;;5059335;28;21055;-48
2022/06/02 03:13:52;;;;;;;1.80;1.70;;;17.70;56.60;;;;;;5113589;27;20601;-48
2022/06/02 03:16:35;;;;;;;1.50;1.40;;;17.70;56.70;;;;;;5131655;27;21126;-48
2022/06/02 03:19:28;;;;;;;1.70;1.60;;;17.80;56.90;;;;;;5123102;27;21184;-48
2022/06/02 03:22:20;;;;;;;1.80;1.70;;;17.70;56.70;;;;;;5079112;28;20532;-50
2022/06/02 03:25:09;;;;;;;2.00;1.90;;;17.70;56.80;;;;;;5096457;27;20593;-50
2022/06/02 03:27:59;;;;;;;1.90;1.43;;;17.70;56.80;;;;;;5078630;28;20589;-47
2022/06/02 03:30:48;;;;;;;1.50;1.30;;;17.70;56.80;;;;;;5071960;27;20545;-50
2022/06/02 03:33:54;;;;;;;1.50;1.40;;;17.70;56.80;;;;;;5121445;27;20566;-49
2022/06/02 03:36:57;;;;;;;1.80;1.70;;;17.70;56.70;;;;;;5074445;27;21068;-49
2022/06/02 03:39:51;;;;;;;3.80;1.73;;;17.70;58.00;;;;;;5080696;28;20578;-47
2022/06/02 03:42:42;;;;;;;1.30;1.20;;;17.70;56.90;;;;;;5102191;27;20576;-48
2022/06/02 03:45:39;;;;;;;1.67;1.57;;;17.70;56.90;;;;;;5094059;27;20543;-48
2022/06/02 03:48:42;;;;;;;1.60;1.50;;;17.70;56.80;;;;;;5013870;28;20591;-48
2022/06/02 03:51:34;;;;;;;1.80;1.70;;;17.60;56.70;;;;;;5108168;27;20554;-50
2022/06/02 03:54:43;;;;;;;3.40;1.40;;;17.60;56.70;;;;;;5121052;27;20913;-48
2022/06/02 03:57:58;;;;;;;1.77;1.40;;;17.60;56.80;;;;;;5101521;27;20534;-48
2022/06/02 04:00:48;;;;;;;2.20;1.50;;;17.70;56.90;;;;;;5113335;27;21002;-49
2022/06/02 04:03:55;;;;;;;1.67;1.53;;;17.60;56.70;;;;;;5081775;28;20523;-49
2022/06/02 04:06:50;;;;;;;2.57;2.07;;;17.60;56.80;;;;;;5049504;27;20904;-49
2022/06/02 04:09:40;;;;;;;1.97;1.87;;;17.60;56.80;;;;;;5122288;27;20568;-49
2022/06/02 04:16:19;;;;;;;1.60;1.50;;;17.60;56.70;;;;;;5101541;27;21137;-47
2022/06/02 04:22:37;;;;;;;1.90;1.80;;;17.60;56.80;;;;;;5067085;28;20532;-49
2022/06/02 04:25:33;;;;;;;1.83;1.73;;;17.60;56.80;;;;;;5074085;28;20544;-46
2022/06/02 04:28:24;;;;;;;1.83;1.70;;;17.60;56.80;;;;;;5076114;28;20866;-47
2022/06/02 04:31:17;;;;;;;1.77;1.67;;;17.60;56.90;;;;;;5075191;27;20567;-49
2022/06/02 04:34:03;;;;;;;1.97;1.87;;;17.60;56.90;;;;;;5081697;27;20572;-48
2022/06/02 04:36:52;;;;;;;1.70;1.60;;;17.60;56.90;;;;;;5061217;27;20611;-49
2022/06/02 04:39:46;;;;;;;2.17;1.90;;;17.60;56.90;;;;;;5147682;27;20573;-49
2022/06/02 04:42:34;;;;;;;1.80;1.70;;;17.60;56.90;;;;;;5081619;28;20529;-47
2022/06/02 04:45:22;;;;;;;1.70;1.60;;;17.50;56.80;;;;;;5075547;27;20677;-48
2022/06/02 04:48:10;;;;;;;1.90;1.80;;;17.50;56.90;;;;;;5091201;27;21017;-47
2022/06/02 04:50:58;;;;;;;3.83;2.83;;;17.50;57.00;;;;;;5065937;28;21077;-48
2022/06/02 04:53:47;;;;;;;1.80;1.70;;;17.50;56.90;;;;;;5085098;27;20519;-47
2022/06/02 04:56:34;;;;;;;1.87;1.50;;;17.50;56.90;;;;;;5065645;27;20896;-48
2022/06/02 04:59:23;;;;;;;1.60;1.50;;;17.50;56.90;;;;;;5072165;28;20586;-48
2022/06/02 05:02:13;;;;;;;2.07;1.97;;;17.50;56.90;;;;;;5122059;27;20524;-47
2022/06/02 05:05:05;;;;;;;1.83;1.57;;;17.50;58.10;;;;;;5113174;27;20521;-49
2022/06/02 05:08:07;;;;;;;2.00;1.60;;;17.50;57.00;;;;;;5084397;28;20544;-67
2022/06/02 05:10:56;;;;;;;1.40;1.30;;;17.50;57.00;;;;;;5091008;27;20545;-48
2022/06/02 05:13:47;;;;;;;1.97;1.87;;;17.50;57.00;;;;;;5072208;28;21059;-49
2022/06/02 05:16:44;;;;;;;1.97;1.80;;;17.50;57.00;;;;;;5064675;27;20573;-46
2022/06/02 05:20:07;;;;;;;2.40;1.47;;;17.50;57.00;;;;;;5102728;27;20963;-47
2022/06/02 05:23:01;;;;;;;1.67;1.50;;;17.50;57.10;;;;;;5071798;28;20531;-49
2022/06/02 05:26:07;;;;;;;1.63;1.47;;;17.50;57.10;;;;;;5061091;28;20554;-47
2022/06/02 05:29:06;;;;;;;1.50;1.40;;;17.50;57.10;;;;;;5078137;27;20949;-47
2022/06/02 05:32:18;;;;;;;1.60;1.50;;;17.50;57.10;;;;;;5062506;27;20548;-47
2022/06/02 05:35:27;;;;;;;1.70;1.60;;;17.50;57.10;;;;;;5093332;27;20618;-47
2022/06/02 05:38:35;;;;;;;1.60;1.50;;;17.50;57.10;;;;;;5079600;28;20593;-46
2022/06/02 05:41:35;;;;;;;1.80;1.70;;;17.50;57.10;;;;;;5065244;27;20548;-50
2022/06/02 05:44:37;;;;;;;2.37;1.60;;;17.50;57.10;;;;;;5078502;27;20897;-47
2022/06/02 05:47:36;;;;;;;1.37;1.27;;;17.50;57.20;;;;;;5076621;28;20529;-48
2022/06/02 05:50:32;;;;;;;1.17;1.13;;;17.50;57.10;;;;;;5097620;27;20532;-48
2022/06/02 05:53:30;;;;;;;1.47;1.37;;;17.50;57.10;;;;;;5101961;27;20568;-48
2022/06/02 05:56:20;;;;;;;1.30;1.20;;;17.50;57.10;;;;;;5066981;27;20548;-49
2022/06/02 05:59:25;;;;;;;1.40;1.30;;;17.50;57.10;;;;;;5069512;28;20544;-49
2022/06/02 06:02:37;;;;;;;1.80;1.70;;;17.50;57.00;;;;;;5101298;27;21029;-48
2022/06/02 06:05:24;;;;;;;1.52;1.42;;;17.50;57.10;;;;;;5123658;27;1195193;-48
2022/06/02 06:08:17;;;;;;;1.50;1.40;;;17.50;57.00;;;;;;5068479;27;20552;-49
2022/06/02 06:11:07;;;;;;;1.60;1.50;;;17.50;57.10;;;;;;5087703;27;20603;-47
2022/06/02 06:14:12;;;;;;;1.33;1.23;;;17.50;57.20;;;;;;5071003;28;20617;-47
2022/06/02 06:17:06;;;;;;;1.40;1.30;;;17.50;57.00;;;;;;5043555;27;21129;-49
2022/06/02 06:20:02;;;;;;;3.63;2.20;;;17.50;57.10;;;;;;5116812;27;20514;-49
2022/06/02 06:23:10;;;;;;;1.63;1.53;;;17.50;57.10;;;;;;5093335;27;20535;-51
2022/06/02 06:26:07;;;;;;;1.60;1.50;;;17.50;57.20;;;;;;5059363;28;20548;-48
2022/06/02 06:28:58;;;;;;;2.20;2.00;;;17.50;57.10;;;;;;5069557;27;20603;-49
2022/06/02 06:31:51;;;;;;;3.30;2.47;;;17.50;57.10;;;;;;5064430;27;21060;-49
2022/06/02 06:34:41;;;;;;;1.73;1.63;;;17.50;57.00;;;;;;5078922;28;20520;-48
2022/06/02 06:37:53;;;;;;;1.90;1.73;;;17.50;57.20;;;;;;5072959;27;20604;-49
2022/06/02 06:40:52;;;;;;;2.70;2.50;;;17.50;57.20;;;;;;5096653;27;20611;-47
2022/06/02 06:43:48;;;;;;;1.90;1.70;;;17.50;57.30;;;;;;5120708;27;20586;-46
2022/06/02 06:46:37;;;;;;;3.10;2.80;;;17.50;57.20;;;;;;5065965;27;20553;-48
2022/06/02 06:49:21;;;;;;;1.90;1.80;;;17.50;57.20;;;;;;5081429;28;21042;-49
2022/06/02 06:52:31;;;;;;;2.87;2.67;;;17.50;57.20;;;;;;5059351;27;20591;-49
2022/06/02 06:55:31;;;;;;;3.33;3.03;;;17.40;57.00;;;;;;5088407;27;20537;-66
2022/06/02 06:58:24;;;;;;;3.40;3.10;;;17.50;57.30;;;;;;5095960;27;20539;-49
2022/06/02 07:01:12;;;;;;;2.60;2.40;;;17.50;57.40;;;;;;5113672;27;20543;-47
2022/06/02 07:04:07;;;;;;;2.37;2.17;;;17.50;57.40;;;;;;5121635;27;20512;-49
2022/06/02 07:06:55;;;;;;;2.30;2.10;;;17.50;57.50;;;;;;5069936;27;21091;-66
2022/06/02 07:09:45;;;;;;;4.55;3.70;;;17.40;57.20;;;;;;5027434;28;20499;-46
2022/06/02 07:15:47;;;;;;;4.90;4.50;;;17.80;56.90;;;;;;5072672;28;20968;-48
2022/06/02 07:18:36;;;;;;;6.33;5.10;;;17.90;56.90;;;;;;5087822;27;21157;-46
2022/06/02 07:21:26;;;;;;;5.57;5.07;;;18.00;55.90;;;;;;5080279;27;20548;-49
2022/06/02 07:24:18;;;;;;;5.47;4.97;;;18.10;55.60;;;;;;5072084;27;20539;-48
2022/06/02 07:27:03;;;;;;;5.47;4.97;;;18.10;55.40;;;;;;5061201;27;20564;-47
2022/06/02 07:29:57;;;;;;;6.97;6.00;;;18.20;55.50;;;;;;5092718;27;20535;-49
2022/06/02 07:33:02;;;;;;;5.77;5.17;;;18.20;55.60;;;;;;5121590;27;20521;-47
2022/06/02 07:36:14;;;;;;;6.93;6.33;;;18.20;55.20;;;;;;5069632;28;20552;-48
2022/06/02 07:39:26;;;;;;;7.63;6.60;;;18.10;55.20;;;;;;5065550;28;20601;-51
2022/06/02 07:42:27;;;;;;;6.50;6.00;;;18.10;55.30;;;;;;5079855;27;20543;-48
2022/06/02 07:45:30;;;;;;;5.47;4.73;;;18.10;55.70;;;;;;5074743;28;20582;-48
2022/06/02 07:48:49;;;;;;;4.50;3.93;;;18.00;55.80;;;;;;5117368;27;20940;-47
2022/06/02 07:51:36;;;;;;;3.17;2.97;;;17.90;55.90;;;;;;5064928;27;20529;-47
2022/06/02 07:54:31;;;;;;;3.00;2.70;;;17.80;56.00;;;;;;5111318;27;20529;-48
2022/06/02 07:57:25;;;;;;;2.73;2.30;;;17.80;56.20;;;;;;5117634;27;20584;-66
2022/06/02 08:00:14;;;;;;;2.57;2.37;;;17.70;56.30;;;;;;5076137;27;20549;-50
2022/06/02 08:03:27;;;;;;;2.23;2.13;;;17.70;56.40;;;;;;5147776;27;20512;-48
2022/06/02 08:06:15;;;;;;;2.80;2.60;;;17.60;56.50;;;;;;5076939;27;21057;-48
2022/06/02 08:09:46;;;;;;;2.30;2.10;;;17.60;56.50;;;;;;5122453;27;20559;-47
2022/06/02 08:12:39;;;;;;;2.23;1.80;;;17.60;56.60;;;;;;5080423;27;20569;-48
2022/06/02 08:15:45;;;;;;;3.30;1.70;;;17.60;56.80;;;;;;5067357;28;20533;-47
2022/06/02 08:18:53;;;;;;;2.43;1.83;;;17.60;56.70;;;;;;5080649;28;21128;-50
2022/06/02 08:21:40;;;;;;;1.83;1.73;;;17.60;56.70;;;;;;5063377;27;20545;-55
2022/06/02 08:24:36;;;;;;;3.03;2.03;;;17.60;56.80;;;;;;5100522;27;21058;-49
2022/06/02 08:27:37;;;;;;;2.47;2.00;;;17.60;56.70;;;;;;5081820;28;21104;-48
2022/06/02 08:30:23;;;;;;;2.23;1.87;;;17.60;56.80;;;;;;5105373;27;21046;-47
2022/06/02 08:33:27;;;;;;;1.73;1.60;;;17.50;56.70;;;;;;5080892;27;20585;-48
2022/06/02 08:36:15;;;;;;;2.57;1.83;;;17.50;56.80;;;;;;5083747;27;20548;-46
2022/06/02 08:39:10;;;;;;;2.83;1.70;;;17.50;56.70;;;;;;5067458;27;20619;-48
2022/06/02 08:42:21;;;;;;;2.07;1.60;;;17.50;56.70;;;;;;5103153;27;21117;-47
2022/06/02 08:45:38;;;;;;;1.70;1.60;;;17.50;56.80;;;;;;5118777;27;1211058;-50
2022/06/02 08:48:57;;;;;;;2.37;1.53;;;17.50;56.80;;;;;;5068763;28;20940;-48
2022/06/02 08:52:14;;;;;;;2.17;1.97;;;17.60;58.10;;;;;;5058484;27;20609;-51
2022/06/02 08:55:36;;;;;;;1.73;1.63;;;17.60;56.90;;;;;;5076658;28;20516;-46
2022/06/02 08:59:02;;;;;;;1.60;1.50;;;17.50;56.90;;;;;;5073948;28;20595;-48
2022/06/02 09:02:23;;;;;;;1.37;1.27;;;17.50;56.90;;;;;;5063658;27;20820;-47
2022/06/02 09:05:37;;;;;;;2.27;1.60;;;17.50;57.00;;;;;;5117077;27;21065;-49
2022/06/02 09:08:43;;;;;;;1.37;1.27;;;17.50;57.00;;;;;;5061643;28;20545;-49
2022/06/02 09:11:48;;;;;;;2.13;1.53;;;17.50;57.00;;;;;;5066022;27;21161;-50
2022/06/02 09:15:17;;;;;;;1.67;1.57;;;17.50;57.00;;;;;;5119197;27;20517;-47
2022/06/02 09:18:16;;;;;;;2.17;1.90;;;17.50;57.00;;;;;;5120524;27;20533;-50
2022/06/02 09:21:08;;;;;;;2.40;1.80;;;17.50;57.00;;;;;;5058207;28;20538;-47
2022/06/02 09:23:57;;;;;;;1.60;1.50;;;17.50;57.10;;;;;;5130334;27;20551;-47
2022/06/02 09:26:57;;;;;;;2.40;2.20;;;17.50;57.00;;;;;;5065089;27;21075;-47
2022/06/02 09:29:43;;;;;;;1.67;1.57;;;17.50;57.00;;;;;;5098100;27;20584;-44
2022/06/02 09:33:33;;;;;;;1.63;1.43;;;17.50;57.10;;;;;;5102113;27;21098;-49
2022/06/02 09:36:34;;;;;;;2.00;1.90;;;17.50;58.30;;;;;;5068240;27;20540;-46
2022/06/02 09:39:32;;;;;;;1.60;1.50;;;17.50;57.00;;;;;;5070018;28;20527;-48
2022/06/02 09:42:32;;;;;;;1.60;1.50;;;17.50;57.00;;;;;;5080527;28;20521;-48
2022/06/02 09:45:43;;;;;;;1.50;1.40;;;17.50;57.00;;;;;;5105495;27;20548;-48
2022/06/02 09:48:56;;;;;;;2.00;1.57;;;17.50;57.10;;;;;;5121128;27;20583;-46
2022/06/02 09:51:50;;;;;;;1.53;1.43;;;17.50;57.00;;;;;;5063363;27;20598;-47
2022/06/02 09:54:53;;;;;;;1.70;1.60;;;17.50;57.00;;;;;;5082046;27;21010;-47
2022/06/02 09:57:59;;;;;;;1.80;1.70;;;17.50;57.10;;;;;;5121366;27;20545;-45
2022/06/02 10:01:22;;;;;;;1.67;1.57;;;17.50;57.10;;;;;;4992335;28;20563;-49
2022/06/02 10:04:38;;;;;;;1.93;1.37;;;17.50;57.10;;;;;;5117580;27;20952;-51
2022/06/02 10:07:36;;;;;;;1.53;1.43;;;17.50;57.00;;;;;;5071549;27;20637;-50
2022/06/02 10:10:43;;;;;;;2.63;2.40;;;17.60;57.20;;;;;;5070250;27;20538;-47
2022/06/02 10:14:00;;;;;;;1.93;1.83;;;17.50;57.10;;;;;;5087763;27;21152;-65
2022/06/02 10:17:24;;;;;;;1.80;1.60;;;17.50;57.10;;;;;;5029954;27;20559;-49
2022/06/02 10:20:39;;;;;;;1.50;1.40;;;17.50;57.00;;;;;;5110362;27;20594;-51
2022/06/02 10:23:46;;;;;;;2.43;1.97;;;17.50;57.10;;;;;;5118426;27;20528;-50
2022/06/02 10:26:38;;;;;;;1.70;1.60;;;17.50;57.10;;;;;;5065678;28;21055;-48
2022/06/02 10:29:55;;;;;;;1.73;1.63;;;17.50;57.10;;;;;;5121136;27;20535;-49
2022/06/02 10:33:09;;;;;;;1.60;1.50;;;17.50;56.90;;;;;;5080808;27;21119;-49
2022/06/02 10:36:28;;;;;;;1.73;1.60;;;17.50;57.00;;;;;;5090591;27;20600;-47
2022/06/02 10:39:30;;;;;;;1.97;1.57;;;17.50;57.00;;;;;;5107621;27;20530;-48
2022/06/02 10:42:46;;;;;;;1.97;1.87;;;17.50;57.10;;;;;;5081484;27;20957;-48
2022/06/02 10:46:05;;;;;;;2.10;1.97;;;17.60;57.10;;;;;;5107292;27;20577;-49
2022/06/02 10:49:13;;;;;;;1.63;1.53;;;17.60;57.10;;;;;;5100363;27;20591;-47
2022/06/02 10:52:32;;;;;;;2.13;1.70;;;17.60;57.00;;;;;;5056877;27;20568;-45
2022/06/02 10:55:54;;;;;;;1.60;1.50;;;17.60;57.00;;;;;;5125532;27;1224665;-47
2022/06/02 10:59:11;;;;;;;1.90;1.80;;;17.60;56.90;;;;;;5073231;28;20602;-47
2022/06/02 11:02:14;;;;;;;2.20;1.60;;;17.60;56.90;;;;;;5068259;27;21559;-48
2022/06/02 11:05:31;;;;;;;2.07;1.97;;;17.60;56.80;;;;;;5114188;27;20537;-47
2022/06/02 11:09:20;;;;;;;2.00;1.80;;;17.60;56.90;;;;;;5121507;27;20526;-47
2022/06/02 11:12:29;;;;;;;2.30;2.10;;;17.60;56.80;;;;;;5061014;27;20959;-46
2022/06/02 11:15:51;;;;;;;1.87;1.57;;;17.60;56.80;;;;;;5075719;28;20533;-46
2022/06/02 11:18:53;;;;;;;2.00;1.80;;;17.70;56.90;;;;;;5080771;27;20532;-48
2022/06/02 11:22:05;;;;;;;2.03;1.83;;;17.70;56.80;;;;;;5063341;27;20545;-46
2022/06/02 11:25:17;;;;;;;1.30;1.30;;;17.60;56.70;;;;;;5080160;27;21054;-47
2022/06/02 11:28:39;;;;;;;2.00;1.63;;;17.60;56.70;;;;;;5092095;27;20961;-50
2022/06/02 11:31:41;;;;;;;1.60;1.50;;;17.70;56.90;;;;;;5101645;27;20542;-46
2022/06/02 11:34:48;;;;;;;1.83;1.73;;;17.70;56.80;;;;;;5121102;27;20737;-48
2022/06/02 11:37:58;;;;;;;1.73;1.50;;;17.70;56.70;;;;;;5072243;28;20638;-48
2022/06/02 11:41:06;;;;;;;2.27;2.07;;;17.70;56.80;;;;;;5069780;27;20545;-47
2022/06/02 11:44:02;;;;;;;2.17;1.90;;;17.70;56.70;;;;;;5074749;27;20927;-47
2022/06/02 11:47:18;;;;;;;1.70;1.40;;;17.70;56.70;;;;;;5063284;27;20540;-47
2022/06/02 11:50:38;;;;;;;1.70;1.60;;;17.70;56.80;;;;;;5078265;28;20521;-47
2022/06/02 11:54:01;;;;;;;2.60;2.40;;;17.70;56.70;;;;;;5123163;27;20923;-47
2022/06/02 11:56:55;;;;;;;1.83;1.73;;;17.80;56.70;;;;;;5084564;27;20542;-49
2022/06/02 12:00:08;;;;;;;1.80;1.70;;;17.80;56.80;;;;;;5063897;28;20536;-48
2022/06/02 12:03:19;;;;;;;1.60;1.50;;;17.80;56.90;;;;;;5080471;27;21043;-45
2022/06/02 12:06:33;;;;;;;1.60;1.43;;;17.80;56.90;;;;;;5069732;27;20545;-48
2022/06/02 12:09:45;;;;;;;1.60;1.50;;;17.80;57.00;;;;;;5100777;27;20530;-47
2022/06/02 12:12:55;;;;;;;1.60;1.50;;;17.80;57.00;;;;;;5101008;27;21511;-47
2022/06/02 12:16:05;;;;;;;2.37;2.17;;;17.80;57.00;;;;;;5072540;27;20553;-48
2022/06/02 12:19:10;;;;;;;1.03;0.93;;;17.80;57.00;;;;;;5091222;27;20558;-50
2022/06/02 12:22:06;;;;;;;2.20;2.00;;;17.80;57.00;;;;;;5136864;27;20567;-47
2022/06/02 12:25:22;;;;;;;1.83;1.50;;;17.80;57.00;;;;;;5098862;27;20568;-48
2022/06/02 12:28:30;;;;;;;1.63;1.53;;;17.90;57.10;;;;;;5074919;28;20955;-47
2022/06/02 12:31:46;;;;;;;1.40;1.30;;;17.90;57.00;;;;;;5087528;27;20585;-49
2022/06/02 12:35:09;;;;;;;1.60;1.50;;;17.90;57.00;;;;;;5121143;27;20560;-47
2022/06/02 12:38:15;;;;;;;2.07;1.87;;;17.90;57.00;;;;;;5113093;27;20956;-47
2022/06/02 12:41:11;;;;;;;2.40;2.20;;;17.90;57.00;;;;;;5088274;27;20548;-46
2022/06/02 12:44:33;;;;;;;2.10;1.90;;;17.90;56.90;;;;;;5071536;27;20594;-48
2022/06/02 12:47:47;;;;;;;1.80;1.70;;;17.90;56.90;;;;;;5109541;27;20608;-49
2022/06/02 12:50:43;;;;;;;1.90;1.80;;;17.90;56.90;;;;;;5079983;27;20998;-47
2022/06/02 12:53:55;;;;;;;1.40;1.30;;;17.90;56.90;;;;;;5081078;28;20516;-49
2022/06/02 12:56:57;;;;;;;1.47;1.37;;;18.00;57.00;;;;;;5076437;27;20543;-48
2022/06/02 13:00:18;;;;;;;1.77;1.67;;;18.00;57.10;;;;;;5062136;27;21050;-48
2022/06/02 13:03:38;;;;;;;1.80;1.70;;;18.00;57.20;;;;;;5100666;27;21094;-47
2022/06/02 13:06:48;;;;;;;1.73;1.63;;;18.00;57.00;;;;;;5063527;27;20821;-46
2022/06/02 13:10:12;;;;;;;2.27;2.07;;;18.00;57.00;;;;;;5121223;27;20513;-48
2022/06/02 13:13:23;;;;;;;2.30;2.10;;;18.00;57.00;;;;;;5079253;27;20520;-49
2022/06/02 13:16:33;;;;;;;1.73;1.63;;;18.10;56.70;;;;;;5060323;27;20635;-49
2022/06/02 13:19:49;;;;;;;1.70;1.60;;;18.10;57.00;;;;;;5060999;27;20528;-47
2022/06/02 13:23:14;;;;;;;2.30;2.03;;;18.10;57.00;;;;;;5077030;27;20531;-47
2022/06/02 13:26:39;;;;;;;2.13;1.93;;;18.10;56.70;;;;;;5066925;27;20821;-49
2022/06/02 13:30:01;;;;;;;3.20;3.00;;;18.10;57.10;;;;;;5120156;27;20575;-51
2022/06/02 13:33:02;;;;;;;4.03;3.63;;;18.20;55.10;;;;;;5080399;27;20982;-48
2022/06/02 13:36:17;;;;;;;3.23;2.57;;;18.30;55.00;;;;;;5070775;28;20632;-48
2022/06/02 13:39:27;;;;;;;8.23;3.90;;;18.40;55.20;;;;;;5075235;28;21069;-48
2022/06/02 13:42:33;;;;;;;4.53;4.23;;;18.40;54.20;;;;;;5101680;27;20544;-47
2022/06/02 13:45:34;;;;;;;4.53;4.17;;;18.50;54.00;;;;;;5069764;28;20542;-49
2022/06/02 13:48:51;;;;;;;5.70;3.50;;;18.50;54.20;;;;;;5076141;28;20532;-49
2022/06/02 13:51:57;;;;;;;4.70;3.80;;;18.50;53.80;;;;;;5103661;27;20621;-47
2022/06/02 13:58:25;;;;;;;3.97;3.60;;;18.50;53.40;;;;;;5106204;27;20613;-48
2022/06/02 14:01:53;;;;;;;4.17;3.77;;;18.50;53.10;;;;;;5068646;27;20602;-47
2022/06/02 14:04:54;;;;;;;4.20;3.90;;;18.60;53.10;;;;;;5118626;27;20524;-49
2022/06/02 14:07:59;;;;;;;4.17;3.87;;;18.60;52.80;;;;;;5069568;28;20606;-47
2022/06/02 14:11:04;;;;;;;3.70;3.40;;;18.60;52.90;;;;;;5097976;27;20533;-49
2022/06/02 14:14:05;;;;;;;4.03;3.73;;;18.60;52.80;;;;;;5112330;27;20583;-47
2022/06/02 14:16:56;;;;;;;3.50;3.10;;;18.60;52.20;;;;;;5104922;27;20595;-48
2022/06/02 14:19:59;;;;;;;3.20;3.00;;;18.60;52.30;;;;;;5080428;28;20565;-47
2022/06/02 14:22:46;;;;;;;4.13;3.33;;;18.60;52.10;;;;;;5120100;27;20533;-46
2022/06/02 14:25:40;;;;;;;3.43;3.10;;;18.70;52.10;;;;;;5102365;27;20595;-49
2022/06/02 14:28:47;;;;;;;4.53;3.50;;;18.70;52.10;;;;;;5120038;27;20591;-50
2022/06/02 14:31:39;;;;;;;3.43;3.00;;;18.70;51.90;;;;;;5106281;27;20563;-46
2022/06/02 14:34:32;;;;;;;3.23;2.80;;;18.70;51.60;;;;;;5079630;27;20864;-46
2022/06/02 14:37:19;;;;;;;4.30;3.00;;;18.70;51.30;;;;;;5079011;27;20541;-47
2022/06/02 14:40:03;;;;;;;2.70;2.50;;;18.70;51.50;;;;;;5079180;27;20550;-44
2022/06/02 14:43:09;;;;;;;4.00;3.20;;;18.70;50.70;;;;;;5079733;27;20519;-47
2022/06/02 14:46:01;;;;;;;2.83;2.63;;;18.70;50.90;;;;;;5083003;27;20578;-45
2022/06/02 14:49:06;;;;;;;2.57;2.33;;;18.70;50.50;;;;;;5110278;27;20590;-45
2022/06/02 14:52:01;;;;;;;3.53;2.70;;;18.80;50.80;;;;;;5055269;27;20953;-46
2022/06/02 14:54:56;;;;;;;2.03;1.93;;;18.80;50.50;;;;;;5078266;28;20532;-47
2022/06/02 14:57:58;;;;;;;4.37;2.37;;;18.80;50.60;;;;;;5114300;27;20603;-47
2022/06/02 15:00:50;;;;;;;3.20;2.73;;;18.80;50.60;;;;;;5073485;28;21055;-46
2022/06/02 15:04:05;;;;;;;2.67;2.13;;;18.80;50.30;;;;;;5073704;28;21045;-48
2022/06/02 15:07:10;;;;;;;2.80;2.10;;;18.80;50.50;;;;;;5064412;27;20891;-46
2022/06/02 15:10:04;;;;;;;2.70;2.50;;;18.90;50.40;;;;;;5107865;27;20553;-48
2022/06/02 15:13:09;;;;;;;4.13;2.53;;;18.90;50.50;;;;;;5120925;27;20513;-50
2022/06/02 15:16:08;;;;;;;2.20;2.00;;;18.90;50.50;;;;;;5092930;27;20541;-46
2022/06/02 15:19:22;;;;;;;2.97;2.77;;;18.90;50.50;;;;;;5081666;28;21121;-50
2022/06/02 15:22:54;;;;;;;3.23;2.30;;;19.00;50.20;;;;;;5073745;27;21040;-48
2022/06/02 15:25:40;;;;;;;3.80;2.43;;;19.00;50.00;;;;;;5073033;27;20537;-47
2022/06/02 15:28:30;;;;;;;3.33;2.60;;;19.00;49.40;;;;;;5075019;28;21061;-47
2022/06/02 15:31:14;;;;;;;2.47;2.20;;;19.00;48.90;;;;;;5109609;27;20540;-49
2022/06/02 15:34:25;;;;;;;2.07;1.97;;;19.00;48.90;;;;;;5081809;27;21036;-45
2022/06/02 15:37:46;;;;;;;2.93;2.63;;;19.00;48.90;;;;;;5046456;27;20585;-45
2022/06/02 15:40:46;;;;;;;2.40;2.20;;;19.00;48.70;;;;;;5075623;27;20532;-50
2022/06/02 15:44:09;;;;;;;2.40;2.20;;;19.00;49.00;;;;;;5073179;28;20560;-48
2022/06/02 15:47:29;;;;;;;4.10;2.40;;;19.10;48.90;;;;;;5057335;27;20554;-45
2022/06/02 15:50:45;;;;;;;2.30;2.10;;;19.10;48.70;;;;;;5077053;27;20554;-50
2022/06/02 15:54:20;;;;;;;2.67;2.47;;;19.10;48.70;;;;;;5097708;27;20670;-47
2022/06/02 15:57:58;;;;;;;3.63;2.80;;;19.10;48.60;;;;;;5061361;27;20540;-47